Wolke Sonne

Wetter Roßtal

Gehe zu: Ammerndorf

Tageswerte vom Montag, 01.06.2020

Optionen

Tag:
Erweitert:

Alle Werte vom Montag, 01.06.2020

Einen Moment bitte, die Daten werden aufbereitet...

UhrzeitTemperaturFeuchteLuftdruckNiederschlagEvapotranspirationNiederschlag?WindWindböenRegenrateWindrichtungHelligkeitSolarstrahlungUV-IndexSonne?Feinstaub 10µmUhrzeit
Diagramm IconDiagramm IconDiagramm IconDiagramm IconDiagramm IconDiagramm IconDiagramm IconDiagramm IconDiagramm IconDiagramm IconDiagramm IconDiagramm IconDiagramm IconDiagramm IconDiagramm Icon
00:0013,9 °C 65 % 1023,2 hPa 0,0 mm 0,0 mm nein 1,6 km/h 4,8 km/h 0,0 mm/h ONO 0,000 klux 0,0 W/qm 0,0 nein - 00:00
00:0513,9 °C 65 % 1023,2 hPa 0,0 mm 0,0 mm nein 1,6 km/h 3,2 km/h 0,0 mm/h ONO 0,000 klux 0,0 W/qm 0,0 nein - 00:05
00:1013,9 °C 65 % 1023,2 hPa 0,0 mm 0,0 mm nein 1,6 km/h 3,2 km/h 0,0 mm/h ONO 0,000 klux 0,0 W/qm 0,0 nein - 00:10
00:1513,9 °C 66 % 1023,2 hPa 0,0 mm 0,0 mm nein 0,0 km/h 1,6 km/h 0,0 mm/h ONO 0,000 klux 0,0 W/qm 0,0 nein - 00:15
00:2013,3 °C 66 % 1023,2 hPa 0,0 mm 0,0 mm nein 0,0 km/h 1,6 km/h 0,0 mm/h ONO 0,000 klux 0,0 W/qm 0,0 nein - 00:20
00:2513,3 °C 66 % 1023,3 hPa 0,0 mm 0,0 mm nein 0,0 km/h 1,6 km/h 0,0 mm/h ONO 0,000 klux 0,0 W/qm 0,0 nein - 00:25
00:3013,3 °C 66 % 1023,3 hPa 0,0 mm 0,0 mm nein 0,0 km/h 0,0 km/h 0,0 mm/h N 0,000 klux 0,0 W/qm 0,0 nein - 00:30
00:3513,3 °C 66 % 1023,2 hPa 0,0 mm 0,0 mm nein 0,0 km/h 1,6 km/h 0,0 mm/h ONO 0,000 klux 0,0 W/qm 0,0 nein - 00:35
00:4012,8 °C 67 % 1023,4 hPa 0,0 mm 0,0 mm nein 1,6 km/h 3,2 km/h 0,0 mm/h ONO 0,000 klux 0,0 W/qm 0,0 nein - 00:40
00:4512,8 °C 69 % 1023,3 hPa 0,0 mm 0,0 mm nein 1,6 km/h 1,6 km/h 0,0 mm/h ONO 0,000 klux 0,0 W/qm 0,0 nein - 00:45
00:5012,8 °C 70 % 1023,3 hPa 0,0 mm 0,0 mm nein 0,0 km/h 1,6 km/h 0,0 mm/h ONO 0,000 klux 0,0 W/qm 0,0 nein - 00:50
00:5512,2 °C 71 % 1023,4 hPa 0,0 mm 0,0 mm nein 0,0 km/h 1,6 km/h 0,0 mm/h ONO 0,000 klux 0,0 W/qm 0,0 nein - 00:55
01:0012,2 °C 72 % 1023,4 hPa 0,0 mm 0,0 mm nein 3,2 km/h 4,8 km/h 0,0 mm/h ONO 0,000 klux 0,0 W/qm 0,0 nein - 01:00
01:0512,2 °C 72 % 1023,3 hPa 0,0 mm 0,0 mm nein 1,6 km/h 4,8 km/h 0,0 mm/h SO 0,000 klux 0,0 W/qm 0,0 nein - 01:05
01:1011,7 °C 72 % 1023,4 hPa 0,0 mm 0,0 mm nein 3,2 km/h 4,8 km/h 0,0 mm/h SO 0,000 klux 0,0 W/qm 0,0 nein - 01:10
01:1511,7 °C 72 % 1023,4 hPa 0,0 mm 0,0 mm nein 3,2 km/h 6,4 km/h 0,0 mm/h SSO 0,000 klux 0,0 W/qm 0,0 nein - 01:15
01:2011,7 °C 73 % 1023,4 hPa 0,0 mm 0,0 mm nein 3,2 km/h 4,8 km/h 0,0 mm/h SSO 0,000 klux 0,0 W/qm 0,0 nein - 01:20
01:2511,1 °C 73 % 1023,4 hPa 0,0 mm 0,0 mm nein 3,2 km/h 4,8 km/h 0,0 mm/h SSO 0,000 klux 0,0 W/qm 0,0 nein - 01:25
01:3011,1 °C 74 % 1023,4 hPa 0,0 mm 0,0 mm nein 3,2 km/h 4,8 km/h 0,0 mm/h SSO 0,000 klux 0,0 W/qm 0,0 nein - 01:30
01:3511,1 °C 74 % 1023,3 hPa 0,0 mm 0,0 mm nein 1,6 km/h 4,8 km/h 0,0 mm/h SSO 0,000 klux 0,0 W/qm 0,0 nein - 01:35
01:4011,1 °C 75 % 1023,3 hPa 0,0 mm 0,0 mm nein 1,6 km/h 3,2 km/h 0,0 mm/h SSO 0,000 klux 0,0 W/qm 0,0 nein - 01:40
01:4510,6 °C 75 % 1023,4 hPa 0,0 mm 0,0 mm nein 1,6 km/h 3,2 km/h 0,0 mm/h SSO 0,000 klux 0,0 W/qm 0,0 nein - 01:45
01:5010,6 °C 76 % 1023,3 hPa 0,0 mm 0,0 mm nein 1,6 km/h 3,2 km/h 0,0 mm/h SSO 0,000 klux 0,0 W/qm 0,0 nein - 01:50
01:5510,6 °C 76 % 1023,4 hPa 0,0 mm 0,0 mm nein 1,6 km/h 3,2 km/h 0,0 mm/h SSO 0,000 klux 0,0 W/qm 0,0 nein - 01:55
UhrzeitTemperaturFeuchteLuftdruckNiederschlagEvapotranspirationNiederschlag?WindWindböenRegenrateWindrichtungHelligkeitSolarstrahlungUV-IndexSonne?Feinstaub 10µmUhrzeit
02:0010,6 °C 77 % 1023,3 hPa 0,0 mm 0,0 mm nein 1,6 km/h 3,2 km/h 0,0 mm/h SSO 0,000 klux 0,0 W/qm 0,0 nein - 02:00
02:0510,0 °C 78 % 1023,4 hPa 0,0 mm 0,0 mm nein 1,6 km/h 3,2 km/h 0,0 mm/h SSO 0,000 klux 0,0 W/qm 0,0 nein - 02:05
02:1010,0 °C 78 % 1023,3 hPa 0,0 mm 0,0 mm nein 1,6 km/h 1,6 km/h 0,0 mm/h SSO 0,000 klux 0,0 W/qm 0,0 nein - 02:10
02:1510,0 °C 78 % 1023,3 hPa 0,0 mm 0,0 mm nein 1,6 km/h 3,2 km/h 0,0 mm/h SSO 0,000 klux 0,0 W/qm 0,0 nein - 02:15
02:2010,0 °C 79 % 1023,3 hPa 0,0 mm 0,0 mm nein 0,0 km/h 1,6 km/h 0,0 mm/h SSO 0,000 klux 0,0 W/qm 0,0 nein - 02:20
02:259,4 °C 79 % 1023,3 hPa 0,0 mm 0,0 mm nein 1,6 km/h 3,2 km/h 0,0 mm/h SSO 0,000 klux 0,0 W/qm 0,0 nein - 02:25
02:309,4 °C 80 % 1023,3 hPa 0,0 mm 0,0 mm nein 0,0 km/h 1,6 km/h 0,0 mm/h SSO 0,000 klux 0,0 W/qm 0,0 nein - 02:30
02:359,4 °C 80 % 1023,3 hPa 0,0 mm 0,0 mm nein 0,0 km/h 0,0 km/h 0,0 mm/h N 0,000 klux 0,0 W/qm 0,0 nein - 02:35
02:409,4 °C 80 % 1023,3 hPa 0,0 mm 0,0 mm nein 0,0 km/h 0,0 km/h 0,0 mm/h N 0,000 klux 0,0 W/qm 0,0 nein - 02:40
02:459,4 °C 80 % 1023,3 hPa 0,0 mm 0,0 mm nein 1,6 km/h 3,2 km/h 0,0 mm/h SSO 0,000 klux 0,0 W/qm 0,0 nein - 02:45
02:509,4 °C 80 % 1023,3 hPa 0,0 mm 0,0 mm nein 1,6 km/h 3,2 km/h 0,0 mm/h SSO 0,000 klux 0,0 W/qm 0,0 nein - 02:50
02:559,4 °C 81 % 1023,2 hPa 0,0 mm 0,0 mm nein 1,6 km/h 3,2 km/h 0,0 mm/h SSO 0,000 klux 0,0 W/qm 0,0 nein - 02:55
03:009,4 °C 81 % 1023,3 hPa 0,0 mm 0,0 mm nein 0,0 km/h 1,6 km/h 0,0 mm/h SSO 0,000 klux 0,0 W/qm 0,0 nein - 03:00
03:058,9 °C 81 % 1023,2 hPa 0,0 mm 0,0 mm nein 0,0 km/h 1,6 km/h 0,0 mm/h SSO 0,000 klux 0,0 W/qm 0,0 nein - 03:05
03:108,9 °C 81 % 1023,1 hPa 0,0 mm 0,0 mm nein 0,0 km/h 0,0 km/h 0,0 mm/h N 0,000 klux 0,0 W/qm 0,0 nein - 03:10
03:158,9 °C 82 % 1023,2 hPa 0,0 mm 0,0 mm nein 0,0 km/h 0,0 km/h 0,0 mm/h N 0,000 klux 0,0 W/qm 0,0 nein - 03:15
03:208,9 °C 82 % 1023,1 hPa 0,0 mm 0,0 mm nein 0,0 km/h 1,6 km/h 0,0 mm/h SSO 0,000 klux 0,0 W/qm 0,0 nein - 03:20
03:258,9 °C 83 % 1023,1 hPa 0,0 mm 0,0 mm nein 0,0 km/h 0,0 km/h 0,0 mm/h N 0,000 klux 0,0 W/qm 0,0 nein - 03:25
Gesamt: 11,1 °C 74 % 1023,3 hPa 0,0 mm 0,1 mm nein 1,2 km/h 2,6 km/h 0,0 mm/h 0 0,000 klux 0,0 W/qm 0,0 nein nan µg/m³

Insgesamt 42 Zeilen mal 15 Spalten = 630 Werte werden angezeigt.

www.wetter-rosstal.de   •   www.wetter-franken.de   •   www.lightningmaps.org   •   Start   •   Kontakt / Datenschutz   •   PC-Kümmerer